sensor_id;sensor_type;location;lat;lon;timestamp;P1;P2;P0
70554;PMS5003;58104;52.744;15.242;2023-05-10T00:01:07;20;19;
70554;PMS5003;58104;52.744;15.242;2023-05-10T00:03:38;19;18;
70554;PMS5003;58104;52.744;15.242;2023-05-10T00:05:59;21;19;
70554;PMS5003;58104;52.744;15.242;2023-05-10T00:08:23;16;16;
70554;PMS5003;58104;52.744;15.242;2023-05-10T00:10:49;20;19;
70554;PMS5003;58104;52.744;15.242;2023-05-10T00:13:15;23;19;
70554;PMS5003;58104;52.744;15.242;2023-05-10T00:15:40;16;15;
70554;PMS5003;58104;52.744;15.242;2023-05-10T00:18:06;19;17;
70554;PMS5003;58104;52.744;15.242;2023-05-10T00:20:31;20;19;
70554;PMS5003;58104;52.744;15.242;2023-05-10T00:22:57;18;18;
70554;PMS5003;58104;52.744;15.242;2023-05-10T00:25:22;20;18;
70554;PMS5003;58104;52.744;15.242;2023-05-10T00:27:47;16;16;
70554;PMS5003;58104;52.744;15.242;2023-05-10T00:30:13;20;17;
70554;PMS5003;58104;52.744;15.242;2023-05-10T00:32:38;21;19;
70554;PMS5003;58104;52.744;15.242;2023-05-10T00:35:03;16;16;
70554;PMS5003;58104;52.744;15.242;2023-05-10T00:37:29;20;18;
70554;PMS5003;58104;52.744;15.242;2023-05-10T00:39:59;17;15;
70554;PMS5003;58104;52.744;15.242;2023-05-10T00:42:20;18;17;
70554;PMS5003;58104;52.744;15.242;2023-05-10T00:44:45;22;21;
70554;PMS5003;58104;52.744;15.242;2023-05-10T00:47:10;18;18;
70554;PMS5003;58104;52.744;15.242;2023-05-10T00:49:35;19;18;
70554;PMS5003;58104;52.744;15.242;2023-05-10T00:52:01;21;21;
70554;PMS5003;58104;52.744;15.242;2023-05-10T00:54:26;18;17;
70554;PMS5003;58104;52.744;15.242;2023-05-10T00:56:52;21;19;
70554;PMS5003;58104;52.744;15.242;2023-05-10T00:59:17;20;19;
70554;PMS5003;58104;52.744;15.242;2023-05-10T01:01:42;25;21;
70554;PMS5003;58104;52.744;15.242;2023-05-10T01:04:07;20;18;
70554;PMS5003;58104;52.744;15.242;2023-05-10T01:06:33;20;18;
70554;PMS5003;58104;52.744;15.242;2023-05-10T01:08:58;19;18;
70554;PMS5003;58104;52.744;15.242;2023-05-10T01:11:24;20;17;
70554;PMS5003;58104;52.744;15.242;2023-05-10T01:13:52;19;17;
70554;PMS5003;58104;52.744;15.242;2023-05-10T01:16:14;22;21;
70554;PMS5003;58104;52.744;15.242;2023-05-10T01:18:40;16;16;
70554;PMS5003;58104;52.744;15.242;2023-05-10T01:21:10;17;17;
70554;PMS5003;58104;52.744;15.242;2023-05-10T01:23:36;18;17;
70554;PMS5003;58104;52.744;15.242;2023-05-10T01:33:15;21;20;
70554;PMS5003;58104;52.744;15.242;2023-05-10T01:35:41;20;19;
70554;PMS5003;58104;52.744;15.242;2023-05-10T01:38:11;20;20;
70554;PMS5003;58104;52.744;15.242;2023-05-10T01:40:30;18;18;
70554;PMS5003;58104;52.744;15.242;2023-05-10T01:42:57;18;18;
70554;PMS5003;58104;52.744;15.242;2023-05-10T01:45:24;19;19;
70554;PMS5003;58104;52.744;15.242;2023-05-10T01:47:48;23;18;
70554;PMS5003;58104;52.744;15.242;2023-05-10T01:50:15;20;19;
70554;PMS5003;58104;52.744;15.242;2023-05-10T01:55:04;24;21;
70554;PMS5003;58104;52.744;15.242;2023-05-10T01:57:30;16;16;
70554;PMS5003;58104;52.744;15.242;2023-05-10T01:59:53;17;17;
70554;PMS5003;58104;52.744;15.242;2023-05-10T02:02:18;21;19;
70554;PMS5003;58104;52.744;15.242;2023-05-10T02:04:43;20;19;
70554;PMS5003;58104;52.744;15.242;2023-05-10T02:07:09;23;22;
70554;PMS5003;58104;52.744;15.242;2023-05-10T02:09:34;18;16;
70554;PMS5003;58104;52.744;15.242;2023-05-10T02:12:00;21;21;
70554;PMS5003;58104;52.744;15.242;2023-05-10T02:14:25;18;18;
70554;PMS5003;58104;52.744;15.242;2023-05-10T02:16:50;25;19;
70554;PMS5003;58104;52.744;15.242;2023-05-10T02:19:17;19;19;
70554;PMS5003;58104;52.744;15.242;2023-05-10T02:21:47;22;19;
70554;PMS5003;58104;52.744;15.242;2023-05-10T02:24:07;22;19;
70554;PMS5003;58104;52.744;15.242;2023-05-10T02:26:32;20;19;
70554;PMS5003;58104;52.744;15.242;2023-05-10T02:28:58;20;19;
70554;PMS5003;58104;52.744;15.242;2023-05-10T02:31:22;19;18;
70554;PMS5003;58104;52.744;15.242;2023-05-10T02:33:49;19;18;
70554;PMS5003;58104;52.744;15.242;2023-05-10T02:36:14;19;19;
70554;PMS5003;58104;52.744;15.242;2023-05-10T02:38:39;22;19;
70554;PMS5003;58104;52.744;15.242;2023-05-10T02:41:05;21;20;
70554;PMS5003;58104;52.744;15.242;2023-05-10T02:43:30;21;19;
70554;PMS5003;58104;52.744;15.242;2023-05-10T02:45:55;21;20;
70554;PMS5003;58104;52.744;15.242;2023-05-10T02:48:20;22;20;
70554;PMS5003;58104;52.744;15.242;2023-05-10T02:50:46;24;22;
70554;PMS5003;58104;52.744;15.242;2023-05-10T02:53:15;21;21;
70554;PMS5003;58104;52.744;15.242;2023-05-10T02:55:37;19;17;
70554;PMS5003;58104;52.744;15.242;2023-05-10T02:58:03;26;25;
70554;PMS5003;58104;52.744;15.242;2023-05-10T03:00:28;25;25;
70554;PMS5003;58104;52.744;15.242;2023-05-10T03:02:53;21;20;
70554;PMS5003;58104;52.744;15.242;2023-05-10T03:05:19;22;22;
70554;PMS5003;58104;52.744;15.242;2023-05-10T03:07:50;27;21;
70554;PMS5003;58104;52.744;15.242;2023-05-10T03:10:10;25;22;
70554;PMS5003;58104;52.744;15.242;2023-05-10T03:12:41;25;21;
70554;PMS5003;58104;52.744;15.242;2023-05-10T03:15:03;25;25;
70554;PMS5003;58104;52.744;15.242;2023-05-10T03:17:29;24;19;
70554;PMS5003;58104;52.744;15.242;2023-05-10T03:19:53;22;20;
70554;PMS5003;58104;52.744;15.242;2023-05-10T03:22:19;20;18;
70554;PMS5003;58104;52.744;15.242;2023-05-10T03:24:42;18;18;
70554;PMS5003;58104;52.744;15.242;2023-05-10T03:27:07;18;16;
70554;PMS5003;58104;52.744;15.242;2023-05-10T03:29:32;21;21;
70554;PMS5003;58104;52.744;15.242;2023-05-10T03:31:58;27;24;
70554;PMS5003;58104;52.744;15.242;2023-05-10T03:34:24;26;24;
70554;PMS5003;58104;52.744;15.242;2023-05-10T03:36:49;21;19;
70554;PMS5003;58104;52.744;15.242;2023-05-10T03:39:14;21;20;
70554;PMS5003;58104;52.744;15.242;2023-05-10T03:41:40;25;23;
70554;PMS5003;58104;52.744;15.242;2023-05-10T03:44:05;26;24;
70554;PMS5003;58104;52.744;15.242;2023-05-10T03:46:31;23;21;
70554;PMS5003;58104;52.744;15.242;2023-05-10T03:48:57;27;23;
70554;PMS5003;58104;52.744;15.242;2023-05-10T03:51:23;20;20;
70554;PMS5003;58104;52.744;15.242;2023-05-10T03:53:48;20;18;
70554;PMS5003;58104;52.744;15.242;2023-05-10T03:56:13;28;24;
70554;PMS5003;58104;52.744;15.242;2023-05-10T03:58:39;25;25;
70554;PMS5003;58104;52.744;15.242;2023-05-10T04:01:05;23;21;
70554;PMS5003;58104;52.744;15.242;2023-05-10T04:03:29;23;20;
70554;PMS5003;58104;52.744;15.242;2023-05-10T04:08:20;24;21;
70554;PMS5003;58104;52.744;15.242;2023-05-10T04:10:45;19;17;
70554;PMS5003;58104;52.744;15.242;2023-05-10T04:13:11;21;18;
70554;PMS5003;58104;52.744;15.242;2023-05-10T04:15:36;21;20;
70554;PMS5003;58104;52.744;15.242;2023-05-10T04:18:02;21;18;
70554;PMS5003;58104;52.744;15.242;2023-05-10T04:20:27;19;19;
70554;PMS5003;58104;52.744;15.242;2023-05-10T04:22:53;25;20;
70554;PMS5003;58104;52.744;15.242;2023-05-10T04:25:18;21;19;
70554;PMS5003;58104;52.744;15.242;2023-05-10T04:27:44;22;19;
70554;PMS5003;58104;52.744;15.242;2023-05-10T04:30:10;16;16;
70554;PMS5003;58104;52.744;15.242;2023-05-10T04:32:35;19;19;
70554;PMS5003;58104;52.744;15.242;2023-05-10T04:35:00;21;18;
70554;PMS5003;58104;52.744;15.242;2023-05-10T04:37:25;24;24;
70554;PMS5003;58104;52.744;15.242;2023-05-10T04:39:51;19;19;
70554;PMS5003;58104;52.744;15.242;2023-05-10T04:42:16;20;20;
70554;PMS5003;58104;52.744;15.242;2023-05-10T04:44:42;23;21;
70554;PMS5003;58104;52.744;15.242;2023-05-10T04:47:07;23;20;
70554;PMS5003;58104;52.744;15.242;2023-05-10T04:49:33;19;17;
70554;PMS5003;58104;52.744;15.242;2023-05-10T04:51:58;20;20;
70554;PMS5003;58104;52.744;15.242;2023-05-10T04:54:24;20;20;
70554;PMS5003;58104;52.744;15.242;2023-05-10T04:56:48;23;18;
70554;PMS5003;58104;52.744;15.242;2023-05-10T04:59:14;21;19;
70554;PMS5003;58104;52.744;15.242;2023-05-10T05:01:40;20;17;
70554;PMS5003;58104;52.744;15.242;2023-05-10T05:04:05;23;19;
70554;PMS5003;58104;52.744;15.242;2023-05-10T05:06:30;19;19;
70554;PMS5003;58104;52.744;15.242;2023-05-10T05:08:56;19;16;
70554;PMS5003;58104;52.744;15.242;2023-05-10T05:11:21;19;18;
70554;PMS5003;58104;52.744;15.242;2023-05-10T05:13:47;25;20;
70554;PMS5003;58104;52.744;15.242;2023-05-10T05:16:12;19;18;
70554;PMS5003;58104;52.744;15.242;2023-05-10T05:18:38;22;20;
70554;PMS5003;58104;52.744;15.242;2023-05-10T05:21:03;19;18;
70554;PMS5003;58104;52.744;15.242;2023-05-10T05:23:29;20;20;
70554;PMS5003;58104;52.744;15.242;2023-05-10T05:25:54;22;22;
70554;PMS5003;58104;52.744;15.242;2023-05-10T05:28:20;22;19;
70554;PMS5003;58104;52.744;15.242;2023-05-10T05:30:45;21;16;
70554;PMS5003;58104;52.744;15.242;2023-05-10T05:33:10;24;20;
70554;PMS5003;58104;52.744;15.242;2023-05-10T05:35:36;23;21;
70554;PMS5003;58104;52.744;15.242;2023-05-10T05:38:01;21;19;
70554;PMS5003;58104;52.744;15.242;2023-05-10T05:40:27;19;19;
70554;PMS5003;58104;52.744;15.242;2023-05-10T05:42:52;19;18;
70554;PMS5003;58104;52.744;15.242;2023-05-10T05:45:17;22;20;
70554;PMS5003;58104;52.744;15.242;2023-05-10T05:47:43;24;19;
70554;PMS5003;58104;52.744;15.242;2023-05-10T05:50:08;23;21;
70554;PMS5003;58104;52.744;15.242;2023-05-10T05:52:34;20;16;
70554;PMS5003;58104;52.744;15.242;2023-05-10T05:54:59;21;19;
70554;PMS5003;58104;52.744;15.242;2023-05-10T05:57:25;19;19;
70554;PMS5003;58104;52.744;15.242;2023-05-10T05:59:50;17;17;
70554;PMS5003;58104;52.744;15.242;2023-05-10T06:02:15;20;18;
70554;PMS5003;58104;52.744;15.242;2023-05-10T06:04:41;24;20;
70554;PMS5003;58104;52.744;15.242;2023-05-10T06:07:06;20;18;
70554;PMS5003;58104;52.744;15.242;2023-05-10T06:09:32;20;17;
70554;PMS5003;58104;52.744;15.242;2023-05-10T06:11:57;18;17;
70554;PMS5003;58104;52.744;15.242;2023-05-10T06:14:23;20;19;
70554;PMS5003;58104;52.744;15.242;2023-05-10T06:16:48;18;16;
70554;PMS5003;58104;52.744;15.242;2023-05-10T06:19:14;21;19;
70554;PMS5003;58104;52.744;15.242;2023-05-10T06:21:39;22;19;
70554;PMS5003;58104;52.744;15.242;2023-05-10T06:24:05;17;17;
70554;PMS5003;58104;52.744;15.242;2023-05-10T06:26:30;21;18;
70554;PMS5003;58104;52.744;15.242;2023-05-10T06:28:55;20;20;
70554;PMS5003;58104;52.744;15.242;2023-05-10T06:31:21;18;18;
70554;PMS5003;58104;52.744;15.242;2023-05-10T06:33:46;20;19;
70554;PMS5003;58104;52.744;15.242;2023-05-10T06:36:12;18;17;
70554;PMS5003;58104;52.744;15.242;2023-05-10T06:38:38;17;16;
70554;PMS5003;58104;52.744;15.242;2023-05-10T06:41:03;20;20;
70554;PMS5003;58104;52.744;15.242;2023-05-10T06:43:28;16;16;
70554;PMS5003;58104;52.744;15.242;2023-05-10T06:45:54;19;17;
70554;PMS5003;58104;52.744;15.242;2023-05-10T06:48:19;16;16;
70554;PMS5003;58104;52.744;15.242;2023-05-10T06:50:45;20;19;
70554;PMS5003;58104;52.744;15.242;2023-05-10T06:53:10;16;16;
70554;PMS5003;58104;52.744;15.242;2023-05-10T06:55:35;17;17;
70554;PMS5003;58104;52.744;15.242;2023-05-10T06:58:01;17;15;
70554;PMS5003;58104;52.744;15.242;2023-05-10T07:00:26;17;16;
70554;PMS5003;58104;52.744;15.242;2023-05-10T07:02:52;16;16;
70554;PMS5003;58104;52.744;15.242;2023-05-10T07:05:17;15;15;
70554;PMS5003;58104;52.744;15.242;2023-05-10T07:07:42;19;16;
70554;PMS5003;58104;52.744;15.242;2023-05-10T07:10:09;15;15;
70554;PMS5003;58104;52.744;15.242;2023-05-10T07:12:33;17;17;
70554;PMS5003;58104;52.744;15.242;2023-05-10T07:14:59;12;12;
70554;PMS5003;58104;52.744;15.242;2023-05-10T07:17:24;16;14;
70554;PMS5003;58104;52.744;15.242;2023-05-10T07:19:50;15;15;
70554;PMS5003;58104;52.744;15.242;2023-05-10T07:22:15;15;15;
70554;PMS5003;58104;52.744;15.242;2023-05-10T07:24:41;21;19;
70554;PMS5003;58104;52.744;15.242;2023-05-10T07:27:06;16;15;
70554;PMS5003;58104;52.744;15.242;2023-05-10T07:29:32;14;14;
70554;PMS5003;58104;52.744;15.242;2023-05-10T07:31:57;12;12;
70554;PMS5003;58104;52.744;15.242;2023-05-10T07:34:23;18;14;
70554;PMS5003;58104;52.744;15.242;2023-05-10T07:36:48;17;14;
70554;PMS5003;58104;52.744;15.242;2023-05-10T07:39:13;19;19;
70554;PMS5003;58104;52.744;15.242;2023-05-10T07:41:38;17;14;
70554;PMS5003;58104;52.744;15.242;2023-05-10T07:44:04;15;15;
70554;PMS5003;58104;52.744;15.242;2023-05-10T07:46:29;20;17;
70554;PMS5003;58104;52.744;15.242;2023-05-10T07:48:55;13;13;
70554;PMS5003;58104;52.744;15.242;2023-05-10T07:51:20;15;13;
70554;PMS5003;58104;52.744;15.242;2023-05-10T07:53:45;14;14;
70554;PMS5003;58104;52.744;15.242;2023-05-10T07:58:36;13;13;
70554;PMS5003;58104;52.744;15.242;2023-05-10T08:01:02;15;14;
70554;PMS5003;58104;52.744;15.242;2023-05-10T08:03:27;16;16;
70554;PMS5003;58104;52.744;15.242;2023-05-10T08:05:53;11;11;
70554;PMS5003;58104;52.744;15.242;2023-05-10T08:08:18;17;13;
70554;PMS5003;58104;52.744;15.242;2023-05-10T08:10:44;16;16;
70554;PMS5003;58104;52.744;15.242;2023-05-10T08:13:09;11;11;
70554;PMS5003;58104;52.744;15.242;2023-05-10T08:15:34;15;14;
70554;PMS5003;58104;52.744;15.242;2023-05-10T08:18:00;10;10;
70554;PMS5003;58104;52.744;15.242;2023-05-10T08:20:25;10;10;
70554;PMS5003;58104;52.744;15.242;2023-05-10T08:22:50;12;12;
70554;PMS5003;58104;52.744;15.242;2023-05-10T08:25:16;13;13;
70554;PMS5003;58104;52.744;15.242;2023-05-10T08:27:41;13;12;
70554;PMS5003;58104;52.744;15.242;2023-05-10T08:30:07;12;12;
70554;PMS5003;58104;52.744;15.242;2023-05-10T08:32:32;10;10;
70554;PMS5003;58104;52.744;15.242;2023-05-10T08:34:57;18;14;
70554;PMS5003;58104;52.744;15.242;2023-05-10T08:37:23;11;11;
70554;PMS5003;58104;52.744;15.242;2023-05-10T08:39:49;16;15;
70554;PMS5003;58104;52.744;15.242;2023-05-10T08:42:15;10;10;
70554;PMS5003;58104;52.744;15.242;2023-05-10T08:44:40;15;14;
70554;PMS5003;58104;52.744;15.242;2023-05-10T08:47:06;11;11;
70554;PMS5003;58104;52.744;15.242;2023-05-10T08:49:31;10;10;
70554;PMS5003;58104;52.744;15.242;2023-05-10T08:51:55;11;11;
70554;PMS5003;58104;52.744;15.242;2023-05-10T08:54:21;12;11;
70554;PMS5003;58104;52.744;15.242;2023-05-10T08:56:46;11;11;
70554;PMS5003;58104;52.744;15.242;2023-05-10T08:59:12;8;8;
70554;PMS5003;58104;52.744;15.242;2023-05-10T09:01:37;11;11;
70554;PMS5003;58104;52.744;15.242;2023-05-10T09:04:03;11;9;
70554;PMS5003;58104;52.744;15.242;2023-05-10T09:06:28;12;12;
70554;PMS5003;58104;52.744;15.242;2023-05-10T09:08:53;11;11;
70554;PMS5003;58104;52.744;15.242;2023-05-10T09:11:19;9;9;
70554;PMS5003;58104;52.744;15.242;2023-05-10T09:13:44;10;8;
70554;PMS5003;58104;52.744;15.242;2023-05-10T09:16:09;10;10;
70554;PMS5003;58104;52.744;15.242;2023-05-10T09:18:35;11;10;
70554;PMS5003;58104;52.744;15.242;2023-05-10T09:21:00;10;10;
70554;PMS5003;58104;52.744;15.242;2023-05-10T09:23:26;7;7;
70554;PMS5003;58104;52.744;15.242;2023-05-10T09:28:17;10;9;
70554;PMS5003;58104;52.744;15.242;2023-05-10T09:30:42;11;11;
70554;PMS5003;58104;52.744;15.242;2023-05-10T09:33:07;9;9;
70554;PMS5003;58104;52.744;15.242;2023-05-10T09:35:32;8;8;
70554;PMS5003;58104;52.744;15.242;2023-05-10T09:37:59;10;9;
70554;PMS5003;58104;52.744;15.242;2023-05-10T09:40:24;10;8;
70554;PMS5003;58104;52.744;15.242;2023-05-10T09:42:52;8;8;
70554;PMS5003;58104;52.744;15.242;2023-05-10T09:45:14;8;8;
70554;PMS5003;58104;52.744;15.242;2023-05-10T09:47:39;8;8;
70554;PMS5003;58104;52.744;15.242;2023-05-10T09:50:05;9;8;
70554;PMS5003;58104;52.744;15.242;2023-05-10T09:52:30;10;10;
70554;PMS5003;58104;52.744;15.242;2023-05-10T09:54:55;9;8;
70554;PMS5003;58104;52.744;15.242;2023-05-10T09:57:21;9;9;
70554;PMS5003;58104;52.744;15.242;2023-05-10T09:59:46;9;9;
70554;PMS5003;58104;52.744;15.242;2023-05-10T10:02:11;12;11;
70554;PMS5003;58104;52.744;15.242;2023-05-10T10:04:39;8;8;
70554;PMS5003;58104;52.744;15.242;2023-05-10T10:07:03;9;9;
70554;PMS5003;58104;52.744;15.242;2023-05-10T10:09:28;8;8;
70554;PMS5003;58104;52.744;15.242;2023-05-10T10:11:53;8;8;
70554;PMS5003;58104;52.744;15.242;2023-05-10T10:14:18;10;8;
70554;PMS5003;58104;52.744;15.242;2023-05-10T10:16:44;9;8;
70554;PMS5003;58104;52.744;15.242;2023-05-10T10:19:09;13;11;
70554;PMS5003;58104;52.744;15.242;2023-05-10T10:21:34;9;8;
70554;PMS5003;58104;52.744;15.242;2023-05-10T10:24:00;10;9;
70554;PMS5003;58104;52.744;15.242;2023-05-10T10:26:25;8;8;
70554;PMS5003;58104;52.744;15.242;2023-05-10T10:28:51;11;10;
70554;PMS5003;58104;52.744;15.242;2023-05-10T10:31:17;11;9;
70554;PMS5003;58104;52.744;15.242;2023-05-10T10:36:07;12;11;
70554;PMS5003;58104;52.744;15.242;2023-05-10T10:38:36;9;9;
70554;PMS5003;58104;52.744;15.242;2023-05-10T10:41:01;10;8;
70554;PMS5003;58104;52.744;15.242;2023-05-10T10:43:23;9;9;
70554;PMS5003;58104;52.744;15.242;2023-05-10T10:50:43;8;8;
70554;PMS5003;58104;52.744;15.242;2023-05-10T10:55:30;10;10;
70554;PMS5003;58104;52.744;15.242;2023-05-10T10:57:56;11;10;
70554;PMS5003;58104;52.744;15.242;2023-05-10T11:00:22;13;12;
70554;PMS5003;58104;52.744;15.242;2023-05-10T11:02:47;11;11;
70554;PMS5003;58104;52.744;15.242;2023-05-10T11:07:37;10;9;
70554;PMS5003;58104;52.744;15.242;2023-05-10T11:10:04;8;8;
70554;PMS5003;58104;52.744;15.242;2023-05-10T11:12:28;10;10;
70554;PMS5003;58104;52.744;15.242;2023-05-10T11:14:57;9;9;
70554;PMS5003;58104;52.744;15.242;2023-05-10T11:17:22;8;8;
70554;PMS5003;58104;52.744;15.242;2023-05-10T11:22:13;9;7;
70554;PMS5003;58104;52.744;15.242;2023-05-10T11:24:35;8;8;
70554;PMS5003;58104;52.744;15.242;2023-05-10T11:27:00;7;6;
70554;PMS5003;58104;52.744;15.242;2023-05-10T11:29:26;10;9;
70554;PMS5003;58104;52.744;15.242;2023-05-10T11:31:51;9;9;
70554;PMS5003;58104;52.744;15.242;2023-05-10T11:36:42;9;9;
70554;PMS5003;58104;52.744;15.242;2023-05-10T11:39:07;6;6;
70554;PMS5003;58104;52.744;15.242;2023-05-10T11:41:33;9;9;
70554;PMS5003;58104;52.744;15.242;2023-05-10T11:43:59;7;6;
70554;PMS5003;58104;52.744;15.242;2023-05-10T11:46:24;10;10;
70554;PMS5003;58104;52.744;15.242;2023-05-10T11:48:49;11;11;
70554;PMS5003;58104;52.744;15.242;2023-05-10T11:51:14;9;9;
70554;PMS5003;58104;52.744;15.242;2023-05-10T11:53:39;9;8;
70554;PMS5003;58104;52.744;15.242;2023-05-10T11:56:05;10;9;
70554;PMS5003;58104;52.744;15.242;2023-05-10T11:58:31;7;7;
70554;PMS5003;58104;52.744;15.242;2023-05-10T12:00:56;8;8;
70554;PMS5003;58104;52.744;15.242;2023-05-10T12:03:21;11;9;
70554;PMS5003;58104;52.744;15.242;2023-05-10T12:05:47;8;8;
70554;PMS5003;58104;52.744;15.242;2023-05-10T12:08:12;8;8;
70554;PMS5003;58104;52.744;15.242;2023-05-10T12:10:38;10;9;
70554;PMS5003;58104;52.744;15.242;2023-05-10T12:13:03;10;9;
70554;PMS5003;58104;52.744;15.242;2023-05-10T12:15:28;8;8;
70554;PMS5003;58104;52.744;15.242;2023-05-10T12:17:54;12;10;
70554;PMS5003;58104;52.744;15.242;2023-05-10T12:20:20;9;9;
70554;PMS5003;58104;52.744;15.242;2023-05-10T12:22:45;9;9;
70554;PMS5003;58104;52.744;15.242;2023-05-10T12:25:10;11;10;
70554;PMS5003;58104;52.744;15.242;2023-05-10T12:27:36;11;10;
70554;PMS5003;58104;52.744;15.242;2023-05-10T12:30:01;8;8;
70554;PMS5003;58104;52.744;15.242;2023-05-10T12:34:52;12;9;
70554;PMS5003;58104;52.744;15.242;2023-05-10T12:37:17;11;11;
70554;PMS5003;58104;52.744;15.242;2023-05-10T12:39:43;10;10;
70554;PMS5003;58104;52.744;15.242;2023-05-10T12:42:08;11;9;
70554;PMS5003;58104;52.744;15.242;2023-05-10T12:44:34;10;9;
70554;PMS5003;58104;52.744;15.242;2023-05-10T12:46:59;11;11;
70554;PMS5003;58104;52.744;15.242;2023-05-10T12:49:25;11;11;
70554;PMS5003;58104;52.744;15.242;2023-05-10T12:51:50;8;8;
70554;PMS5003;58104;52.744;15.242;2023-05-10T12:54:15;12;10;
70554;PMS5003;58104;52.744;15.242;2023-05-10T12:56:41;10;10;
70554;PMS5003;58104;52.744;15.242;2023-05-10T12:59:06;10;10;
70554;PMS5003;58104;52.744;15.242;2023-05-10T13:01:31;9;9;
70554;PMS5003;58104;52.744;15.242;2023-05-10T13:03:57;10;10;
70554;PMS5003;58104;52.744;15.242;2023-05-10T13:06:22;8;8;
70554;PMS5003;58104;52.744;15.242;2023-05-10T13:08:48;13;12;
70554;PMS5003;58104;52.744;15.242;2023-05-10T13:11:13;9;9;
70554;PMS5003;58104;52.744;15.242;2023-05-10T13:13:39;10;10;
70554;PMS5003;58104;52.744;15.242;2023-05-10T13:16:04;10;10;
70554;PMS5003;58104;52.744;15.242;2023-05-10T13:18:29;13;13;
70554;PMS5003;58104;52.744;15.242;2023-05-10T13:20:55;9;9;
70554;PMS5003;58104;52.744;15.242;2023-05-10T13:23:20;11;10;
70554;PMS5003;58104;52.744;15.242;2023-05-10T13:25:45;10;8;
70554;PMS5003;58104;52.744;15.242;2023-05-10T13:28:11;10;10;
70554;PMS5003;58104;52.744;15.242;2023-05-10T13:30:36;11;9;
70554;PMS5003;58104;52.744;15.242;2023-05-10T13:33:02;11;11;
70554;PMS5003;58104;52.744;15.242;2023-05-10T13:35:27;12;11;
70554;PMS5003;58104;52.744;15.242;2023-05-10T13:37:53;12;12;
70554;PMS5003;58104;52.744;15.242;2023-05-10T13:40:18;12;12;
70554;PMS5003;58104;52.744;15.242;2023-05-10T13:42:44;12;11;
70554;PMS5003;58104;52.744;15.242;2023-05-10T13:45:09;13;13;
70554;PMS5003;58104;52.744;15.242;2023-05-10T13:47:34;13;12;
70554;PMS5003;58104;52.744;15.242;2023-05-10T13:49:59;11;10;
70554;PMS5003;58104;52.744;15.242;2023-05-10T13:52:25;9;8;
70554;PMS5003;58104;52.744;15.242;2023-05-10T13:54:50;13;10;
70554;PMS5003;58104;52.744;15.242;2023-05-10T13:57:16;11;9;
70554;PMS5003;58104;52.744;15.242;2023-05-10T13:59:41;12;11;
70554;PMS5003;58104;52.744;15.242;2023-05-10T14:02:07;11;11;
70554;PMS5003;58104;52.744;15.242;2023-05-10T14:04:32;12;11;
70554;PMS5003;58104;52.744;15.242;2023-05-10T14:06:57;13;13;
70554;PMS5003;58104;52.744;15.242;2023-05-10T14:09:23;13;13;
70554;PMS5003;58104;52.744;15.242;2023-05-10T14:11:48;11;10;
70554;PMS5003;58104;52.744;15.242;2023-05-10T14:14:14;12;10;
70554;PMS5003;58104;52.744;15.242;2023-05-10T14:16:40;10;10;
70554;PMS5003;58104;52.744;15.242;2023-05-10T14:19:05;9;9;
70554;PMS5003;58104;52.744;15.242;2023-05-10T14:21:30;11;11;
70554;PMS5003;58104;52.744;15.242;2023-05-10T14:23:55;14;12;
70554;PMS5003;58104;52.744;15.242;2023-05-10T14:26:20;13;11;
70554;PMS5003;58104;52.744;15.242;2023-05-10T14:28:46;12;11;
70554;PMS5003;58104;52.744;15.242;2023-05-10T14:31:12;16;15;
70554;PMS5003;58104;52.744;15.242;2023-05-10T14:33:37;16;12;
70554;PMS5003;58104;52.744;15.242;2023-05-10T14:36:03;12;12;
70554;PMS5003;58104;52.744;15.242;2023-05-10T14:38:28;12;12;
70554;PMS5003;58104;52.744;15.242;2023-05-10T14:40:54;12;12;
70554;PMS5003;58104;52.744;15.242;2023-05-10T14:43:19;9;9;
70554;PMS5003;58104;52.744;15.242;2023-05-10T14:45:45;11;11;
70554;PMS5003;58104;52.744;15.242;2023-05-10T14:48:10;14;14;
70554;PMS5003;58104;52.744;15.242;2023-05-10T14:50:35;9;9;
70554;PMS5003;58104;52.744;15.242;2023-05-10T14:53:01;11;9;
70554;PMS5003;58104;52.744;15.242;2023-05-10T14:55:26;12;11;
70554;PMS5003;58104;52.744;15.242;2023-05-10T14:57:51;10;10;
70554;PMS5003;58104;52.744;15.242;2023-05-10T15:00:17;12;12;
70554;PMS5003;58104;52.744;15.242;2023-05-10T15:02:42;10;10;
70554;PMS5003;58104;52.744;15.242;2023-05-10T15:05:08;10;10;
70554;PMS5003;58104;52.744;15.242;2023-05-10T15:07:33;11;11;
70554;PMS5003;58104;52.744;15.242;2023-05-10T15:09:58;13;12;
70554;PMS5003;58104;52.744;15.242;2023-05-10T15:12:24;9;9;
70554;PMS5003;58104;52.744;15.242;2023-05-10T15:14:49;11;11;
70554;PMS5003;58104;52.744;15.242;2023-05-10T15:17:15;8;7;
70554;PMS5003;58104;52.744;15.242;2023-05-10T15:19:40;11;11;
70554;PMS5003;58104;52.744;15.242;2023-05-10T15:22:05;13;13;
70554;PMS5003;58104;52.744;15.242;2023-05-10T15:24:31;10;10;
70554;PMS5003;58104;52.744;15.242;2023-05-10T15:26:56;10;10;
70554;PMS5003;58104;52.744;15.242;2023-05-10T15:29:22;10;10;
70554;PMS5003;58104;52.744;15.242;2023-05-10T15:31:47;10;10;
70554;PMS5003;58104;52.744;15.242;2023-05-10T15:34:12;13;11;
70554;PMS5003;58104;52.744;15.242;2023-05-10T15:36:38;10;10;
70554;PMS5003;58104;52.744;15.242;2023-05-10T15:39:03;11;11;
70554;PMS5003;58104;52.744;15.242;2023-05-10T15:41:28;12;10;
70554;PMS5003;58104;52.744;15.242;2023-05-10T15:43:54;14;12;
70554;PMS5003;58104;52.744;15.242;2023-05-10T15:46:19;10;10;
70554;PMS5003;58104;52.744;15.242;2023-05-10T15:48:45;12;10;
70554;PMS5003;58104;52.744;15.242;2023-05-10T15:51:10;9;9;
70554;PMS5003;58104;52.744;15.242;2023-05-10T15:53:36;11;10;
70554;PMS5003;58104;52.744;15.242;2023-05-10T15:56:01;12;12;
70554;PMS5003;58104;52.744;15.242;2023-05-10T15:58:26;16;12;
70554;PMS5003;58104;52.744;15.242;2023-05-10T16:00:51;12;11;
70554;PMS5003;58104;52.744;15.242;2023-05-10T16:03:17;11;10;
70554;PMS5003;58104;52.744;15.242;2023-05-10T16:05:42;11;11;
70554;PMS5003;58104;52.744;15.242;2023-05-10T16:08:08;8;8;
70554;PMS5003;58104;52.744;15.242;2023-05-10T16:10:33;11;11;
70554;PMS5003;58104;52.744;15.242;2023-05-10T16:12:59;10;10;
70554;PMS5003;58104;52.744;15.242;2023-05-10T16:15:24;11;11;
70554;PMS5003;58104;52.744;15.242;2023-05-10T16:17:50;17;15;
70554;PMS5003;58104;52.744;15.242;2023-05-10T16:20:15;10;10;
70554;PMS5003;58104;52.744;15.242;2023-05-10T16:22:40;14;13;
70554;PMS5003;58104;52.744;15.242;2023-05-10T16:25:06;14;14;
70554;PMS5003;58104;52.744;15.242;2023-05-10T16:27:31;13;12;
70554;PMS5003;58104;52.744;15.242;2023-05-10T16:29:56;10;10;